Poteau, OK

5:00 PM CDT on September 21, 2017 (GMT -0500)
Kerr

Weather History for KRKR - April, 2013

Change the Weather History Date:

Thursday, April 25, 2013

  Actual Average (KFSM) Record (KFSM)
Temperature  
Mean Temperature 53 °F -  
Max Temperature 73 °F 73 °F 89 °F (2012)
Min Temperature 33 °F 50 °F 35 °F (1910)
Degree Days  
Heating Degree Days 12    
Growing Degree Days 3 (Base 50)    
Moisture  
Dew Point 39 °F    
Average Humidity 63    
Maximum Humidity 100    
Minimum Humidity 23    
Precipitation  
Precipitation 0.00 in - - ()
Sea Level Pressure  
Sea Level Pressure 30.31 in    
Wind  
Wind Speed 1 mph (ENE)    
Max Wind Speed 7 mph    
Max Gust Speed -    
Visibility 9 miles    
Events Fog    
Averages and records for this station are not official NWS values.
T = Trace of Precipitation, MM = Missing Value Source: NWS Daily Summary

Daily Weather History Graph

Daily Weather History Graph

Search for Another Location

Airport or City:

Trip Planner

Search our weather history database for the weather conditions in past years. The results will help you decide how hot, cold, wet, or windy it might be!

Date:

Astronomy

Apr. 25, 2013 Rise Set
Actual Time 6:33 AM CDT 7:59 PM CDT
Civil Twilight 6:07 AM CDT 8:26 PM CDT
Nautical Twilight 5:35 AM CDT 8:58 PM CDT
Astronomical Twilight 5:01 AM CDT 9:31 PM CDT
Moon 8:12 PM CDT (4/25) 6:17 AM CDT (4/25)
Length of Visible Light 14h 18m
Length of Day
13h 25m
Full, 100% of the Moon is Illuminated
Apr 25
Full
Apr 25
Full
May 2
Last Quarter
May 9
New
May 17
First Quarter

Hourly Weather History & Observations

Time (CDT) Temp. Windchill Dew Point Humidity Pressure Visibility Wind Dir Wind Speed Gust Speed Precip Events Conditions
12:15 AM 42.8 °F - 39.2 °F 87% 30.34 in 10.0 mi Calm Calm - N/A   Clear
12:35 AM 41.0 °F - 39.2 °F 93% 30.35 in 10.0 mi Calm Calm - N/A   Clear
12:55 AM 41.0 °F - 39.2 °F 93% 30.35 in 10.0 mi Calm Calm - N/A   Clear
1:15 AM 41.0 °F - 41.0 °F 100% 30.35 in 10.0 mi Calm Calm - N/A   Clear
1:35 AM 37.4 °F - 37.4 °F 100% 30.35 in 7.0 mi Calm Calm - N/A   Clear
1:55 AM 37.4 °F - 37.4 °F 100% 30.35 in 7.0 mi Calm Calm - N/A   Clear
2:15 AM 37.4 °F - 37.4 °F 100% 30.35 in 7.0 mi Calm Calm - N/A   Clear
2:35 AM 37.4 °F - 37.4 °F 100% 30.35 in 3.0 mi Calm Calm - N/A   Mist
2:55 AM 37.4 °F - 37.4 °F 100% 30.34 in 2.5 mi Calm Calm - N/A   Mist
3:15 AM 35.6 °F - 35.6 °F 100% 30.34 in 0.5 mi Calm Calm - N/A Fog Fog
3:35 AM 37.4 °F - 37.4 °F 100% 30.34 in 4.0 mi Calm Calm - N/A   Scattered Clouds
3:55 AM 35.6 °F - 35.6 °F 100% 30.34 in 7.0 mi Calm Calm - N/A   Clear
4:15 AM 35.6 °F - 35.6 °F 100% 30.34 in 7.0 mi Calm Calm - N/A   Clear
4:35 AM 35.6 °F - 35.6 °F 100% 30.34 in 7.0 mi Calm Calm - N/A   Clear
4:55 AM 35.6 °F - 35.6 °F 100% 30.34 in 7.0 mi Calm Calm - N/A   Clear
5:15 AM 35.6 °F - 35.6 °F 100% 30.34 in 5.0 mi Calm Calm - N/A   Clear
5:35 AM 35.6 °F 31.7 °F 35.6 °F 100% 30.34 in 7.0 mi South 4.6 mph - N/A   Clear
5:55 AM 35.6 °F 32.8 °F 35.6 °F 100% 30.35 in 7.0 mi South 3.5 mph - N/A   Clear
6:15 AM 35.6 °F 32.8 °F 35.6 °F 100% 30.35 in 7.0 mi South 3.5 mph - N/A   Clear
6:35 AM 33.8 °F - 33.8 °F 100% 30.36 in 7.0 mi Calm Calm - N/A   Clear
6:55 AM 35.6 °F - 35.6 °F 100% 30.36 in 7.0 mi Calm Calm - N/A   Clear
7:15 AM 35.6 °F - 35.6 °F 100% 30.37 in 7.0 mi Calm Calm - N/A   Clear
7:35 AM 37.4 °F - 37.4 °F 100% 30.38 in 10.0 mi Calm Calm - N/A   Clear
7:55 AM 37.4 °F - 37.4 °F 100% 30.39 in 10.0 mi Calm Calm - N/A   Clear
8:15 AM 41.0 °F - 39.2 °F 93% 30.39 in 10.0 mi Calm Calm - N/A   Clear
8:35 AM 41.0 °F - 39.2 °F 93% 30.38 in 10.0 mi Calm Calm - N/A   Clear
8:55 AM 42.8 °F - 39.2 °F 87% 30.39 in 10.0 mi Calm Calm - N/A   Clear
9:15 AM 44.6 °F - 41.0 °F 87% 30.39 in 10.0 mi Calm Calm - N/A   Clear
9:35 AM 48.2 °F - 42.8 °F 82% 30.39 in 10.0 mi Calm Calm - N/A   Clear
9:55 AM 51.8 °F - 42.8 °F 71% 30.39 in 10.0 mi Calm Calm - N/A   Clear
10:15 AM 51.8 °F - 41.0 °F 67% 30.39 in 10.0 mi Calm Calm - N/A   Clear
10:35 AM 53.6 °F - 42.8 °F 67% 30.39 in 10.0 mi NE 3.5 mph - N/A   Clear
10:55 AM 55.4 °F - 44.6 °F 67% 30.39 in 10.0 mi Calm Calm - N/A   Clear
11:35 AM 59.0 °F - 41.0 °F 51% 30.38 in 10.0 mi Calm Calm - N/A   Clear
11:55 AM 60.8 °F - 41.0 °F 48% 30.38 in 10.0 mi NNE 3.5 mph - N/A   Clear
12:15 PM 60.8 °F - 41.0 °F 48% 30.36 in 10.0 mi Calm Calm - N/A   Clear
12:35 PM 62.6 °F - 39.2 °F 42% 30.36 in 10.0 mi Calm Calm - N/A   Clear
12:55 PM 62.6 °F - 37.4 °F 39% 30.35 in 10.0 mi Calm Calm - N/A   Clear
1:15 PM 64.4 °F - 41.0 °F 42% 30.34 in 10.0 mi Calm Calm - N/A   Clear
1:35 PM 66.2 °F - 41.0 °F 40% 30.33 in 10.0 mi Calm Calm - N/A   Clear
1:55 PM 68.0 °F - 42.8 °F 40% 30.31 in 10.0 mi Calm Calm - N/A   Clear
2:15 PM 68.0 °F - 41.0 °F 37% 30.31 in 10.0 mi North 3.5 mph - N/A   Clear
2:35 PM 71.6 °F - 44.6 °F 38% 30.30 in 10.0 mi NNE 4.6 mph - N/A   Clear
2:55 PM 71.6 °F - 42.8 °F 35% 30.29 in 10.0 mi NNW 3.5 mph - N/A   Clear
3:15 PM 71.6 °F - 41.0 °F 33% 30.28 in 10.0 mi North 6.9 mph - N/A   Clear
3:35 PM 71.6 °F - 37.4 °F 29% 30.28 in 10.0 mi NNE 6.9 mph - N/A   Clear
3:55 PM 71.6 °F - 37.4 °F 29% 30.27 in 10.0 mi NNE 5.8 mph - N/A   Clear
4:15 PM 73.4 °F - 39.2 °F 29% 30.26 in 7.0 mi North 5.8 mph - N/A   Clear
4:35 PM 73.4 °F - 35.6 °F 25% 30.25 in 10.0 mi NE 4.6 mph - N/A   Clear
4:55 PM 73.4 °F - 35.6 °F 25% 30.24 in 10.0 mi NE 5.8 mph - N/A   Clear
5:15 PM 73.4 °F - 33.8 °F 23% 30.23 in 10.0 mi ENE 4.6 mph - N/A   Clear
5:35 PM 71.6 °F - 37.4 °F 29% 30.23 in 10.0 mi Calm Calm - N/A   Clear
5:55 PM 71.6 °F - 37.4 °F 29% 30.23 in 10.0 mi ENE 3.5 mph - N/A   Clear
6:15 PM 71.6 °F - 42.8 °F 35% 30.22 in 10.0 mi Calm Calm - N/A   Clear
6:35 PM 71.6 °F - 42.8 °F 35% 30.22 in 10.0 mi Calm Calm - N/A   Clear
6:55 PM 71.6 °F - 42.8 °F 35% 30.22 in 10.0 mi Calm Calm - N/A   Clear
7:15 PM 69.8 °F - 42.8 °F 38% 30.22 in 10.0 mi Calm Calm - N/A   Clear
7:35 PM 68.0 °F - 41.0 °F 37% 30.21 in 10.0 mi Calm Calm - N/A   Clear
7:55 PM 68.0 °F - 37.4 °F 33% 30.21 in 10.0 mi SE 4.6 mph - N/A   Clear
8:15 PM 68.0 °F - 37.4 °F 33% 30.21 in 10.0 mi ESE 4.6 mph - N/A   Clear
8:35 PM 68.0 °F - 37.4 °F 33% 30.21 in 10.0 mi ESE 3.5 mph - N/A   Clear
8:55 PM 66.2 °F - 37.4 °F 35% 30.22 in 10.0 mi Calm Calm - N/A   Clear
9:15 PM 66.2 °F - 37.4 °F 35% 30.23 in 10.0 mi Calm Calm - N/A   Clear
9:35 PM 66.2 °F - 37.4 °F 35% 30.24 in 10.0 mi Calm Calm - N/A   Clear
9:55 PM 64.4 °F - 39.2 °F 40% 30.26 in 10.0 mi Calm Calm - N/A   Clear
10:15 PM 62.6 °F - 42.8 °F 48% 30.26 in 10.0 mi Calm Calm - N/A   Clear
10:35 PM 62.6 °F - 41.0 °F 45% 30.25 in 10.0 mi SE 3.5 mph - N/A   Clear
10:55 PM 64.4 °F - 41.0 °F 42% 30.24 in 10.0 mi Calm Calm - N/A   Clear
11:15 PM 62.6 °F - 41.0 °F 45% 30.23 in 10.0 mi Calm Calm - N/A   Clear
11:35 PM 64.4 °F - 41.0 °F 42% 30.22 in 10.0 mi Calm Calm - N/A   Clear
11:55 PM 62.6 °F - 41.0 °F 45% 30.23 in 10.0 mi Calm Calm - N/A   Clear